NZAANCRG [ANZ485]

Guest
Details From NZAA - Auckland International
To NCRG - Rarotonga Intl
Flight Number ANZ485
Tags Real Commercial Decoded
Created
Modified
Stats Distance 1,628 nm / 3,015 km
Max Altitude 350 ft / 107 m
Waypoints 8
Social Downloads 8
Likes 0
Share VATSIM

Download

Looking for another format? Having issues loading an existing format? Contact us
Advertisement - Login to hide

Notes

Decoded

Route

NZAA AA AKLOM MEXIP NUPTO OVTOS KIWI NCRG

ID Type Via Altitude Latitude Longitude Leg Dist Tot Dist Heading (true) Name
O NZAA APT - 0 ft / 0 m -37.01438˚ 174.77090˚ - 0 nm - -
AA VOR - 350 ft / 107 m -37.00464˚ 174.81364˚ 2 nm 2 nm 74° / 74° AUCKLAND VOR-DME
AKLOM FIX - 350 ft / 107 m -35.35786˚ 178.39417˚ 199 nm 201 nm 61° / 59° -
MEXIP FIX - 350 ft / 107 m -31.83356˚ -175.00000˚ 392 nm 594 nm 59° / 56° -
NUPTO FIX - 350 ft / 107 m -28.72919˚ -170.00000˚ 319 nm 913 nm 56° / 53° -
OVTOS FIX - 350 ft / 107 m -25.23375˚ -165.00000˚ 340 nm 1253 nm 53° / 51° -
KIWI FIX - 350 ft / 107 m -21.51750˚ -160.22733˚ 344 nm 1598 nm 51° / 49° -
O NCRG APT - 0 ft / 0 m -21.20274˚ -159.81677˚ 29 nm 1628 nm 51° / 50° -

Altitude Profile

Advertisement - Login to hide

Weather


0- 5 10 15 20 25 30 35+ Temperature / ° C

Clouds and Precipitation
Forecast for 2017-12-15 00:00 UTC. Updated 2 hours ago

Ground ~20,000 ft ~40,000 ft Winds

NZAA

Details ICAO NZAA (AKL)
Name Auckland International
Region New Zealand and Antarctica
Timezone Pacific/Auckland (UTC+13.0)
Stats Elevation 23 ft / 7 m (AMSL)
Location -37.010794° 174.787331°
Runways 2
Magnetic Variation 19.833° E

METAR

NZAA 142100Z AUTO 02006KT 340V080 9999 BKN037/// BKN046/// 22/14 Q1018 NOSIG

Decode

TAF

TAF NZAA 141705Z 1418/1518 05005KT 9999 BKN030 BECMG 1501/1503 24010KT BECMG 1507/1509 VRB02KT

Decode

Departure Runways

ID Width Length Bearing (true) Bearing (mag) Surface Threshold Offset Overrun Length
05L 157 ft / 48 m 10,844 ft / 3,305 m 70.91° 51.08° Concrete 1,240 ft / 378 m 460 ft / 140 m
05R 152 ft / 46 m 12,085 ft / 3,684 m 70.96° 51.13° Concrete 1,270 ft / 387 m 0 ft / 0 m
23L 152 ft / 46 m 12,085 ft / 3,684 m 250.94° 231.11° Concrete 0 ft / 0 m 0 ft / 0 m
23R 157 ft / 48 m 10,844 ft / 3,305 m 250.89° 231.06° Concrete 1,060 ft / 323 m 0 ft / 0 m

NCRG

Details ICAO NCRG (RAR)
Name Rarotonga Intl
Region Cook Islands
Timezone Pacific/Rarotonga (UTC-10.0)
Stats Elevation 19 ft / 6 m (AMSL)
Location -21.202739° -159.805555°
Runways 1
Magnetic Variation 13.934° E

METAR

NCRG 142100Z 18007KT 9999 SCT020 BKN090 27/22 Q1007

Decode

TAF

TAF NCRG 141700Z 1418/1518 17008KT 9999 -SHRA FEW009 SCT014 BKN100= TAF NFFN 141709Z 1418/1518 12007KT 9999 SCT024 BKN045 BECMG 1421/1423 28010KT PROB30 TEMPO 1500/1512 5000 TSRA FEW018CB

Decode

Destination Runways

ID Width Length Bearing (true) Bearing (mag) Surface Threshold Offset Overrun Length
08 150 ft / 46 m 7,629 ft / 2,325 m 89.99° 76.06° Concrete 400 ft / 122 m 100 ft / 30 m
26 150 ft / 46 m 7,629 ft / 2,325 m 269.98° 256.05° Concrete 0 ft / 0 m 0 ft / 0 m

Approach Navaids

Runway Type Ident Frequency Range Bearing (true) Bearing (mag) Slope Elevation
08 Localiser INO 109.90 MHz 18 nm / 33 km 89.79° 75.86° - 19 ft / 6 m (AMSL)
08 Glidescope INO 109.90 MHz 10 nm / 19 km 89.98° 76.05° 3.00° 19 ft / 6 m (AMSL)
08 DME INO 109.90 MHz 18 nm / 33 km - - - 19 ft / 6 m (AMSL)
26 Localiser IAV 110.30 MHz 18 nm / 33 km 270.19° 256.26° - 19 ft / 6 m (AMSL)
26 Glidescope IAV 110.30 MHz 10 nm / 19 km 269.98° 256.05° 3.00° 19 ft / 6 m (AMSL)
26 DME IAV 110.30 MHz 18 nm / 33 km - - - 19 ft / 6 m (AMSL)

Popular Alternatives